Terminal Aerodrome Forecast
Issued by NWS

Home | Current Version | Previous Version | Text Only | Print | Product List | Glossary On
Versions: 1 2 3 4 5 6 7 8 9 10 11 12 13 14 15 16 17 18 19 20 21 22 23
000
FTUS43 KMPX 241500 AAA
TAFRWF
TAF AMD
KRWF 241507Z 2415/2512 32022G34KT 6SM -SHSN OVC025
      TEMPO 2415/2418 3SM -SN BKN019
     FM250100 32016G25KT P6SM SCT015=

USA.gov is the U.S. government's official web portal to all federal, state and local government web resources and services.